sensor_id;sensor_type;location;lat;lon;timestamp;P1;durP1;ratioP1;P2;durP2;ratioP2
46266;SDS011;31998;48.798;15.066;2023-09-08T00:01:01;7.90;;;5.10;;
46266;SDS011;31998;48.798;15.066;2023-09-08T00:03:26;8.47;;;4.30;;
46266;SDS011;31998;48.798;15.066;2023-09-08T00:05:52;12.33;;;5.13;;
46266;SDS011;31998;48.798;15.066;2023-09-08T00:08:17;5.00;;;4.60;;
46266;SDS011;31998;48.798;15.066;2023-09-08T00:10:42;5.13;;;4.53;;
46266;SDS011;31998;48.798;15.066;2023-09-08T00:13:07;4.00;;;3.80;;
46266;SDS011;31998;48.798;15.066;2023-09-08T00:15:33;5.20;;;4.23;;
46266;SDS011;31998;48.798;15.066;2023-09-08T00:17:58;14.50;;;4.37;;
46266;SDS011;31998;48.798;15.066;2023-09-08T00:20:24;6.10;;;5.07;;
46266;SDS011;31998;48.798;15.066;2023-09-08T00:22:49;5.40;;;4.83;;
46266;SDS011;31998;48.798;15.066;2023-09-08T00:25:14;5.23;;;4.83;;
46266;SDS011;31998;48.798;15.066;2023-09-08T00:27:40;5.57;;;4.83;;
46266;SDS011;31998;48.798;15.066;2023-09-08T00:30:05;14.53;;;4.90;;
46266;SDS011;31998;48.798;15.066;2023-09-08T00:32:31;5.70;;;4.50;;
46266;SDS011;31998;48.798;15.066;2023-09-08T00:34:56;6.83;;;5.20;;
46266;SDS011;31998;48.798;15.066;2023-09-08T00:37:21;7.27;;;4.50;;
46266;SDS011;31998;48.798;15.066;2023-09-08T00:39:46;11.83;;;5.10;;
46266;SDS011;31998;48.798;15.066;2023-09-08T00:42:11;5.10;;;4.33;;
46266;SDS011;31998;48.798;15.066;2023-09-08T00:44:37;5.87;;;4.87;;
46266;SDS011;31998;48.798;15.066;2023-09-08T00:47:02;4.97;;;4.67;;
46266;SDS011;31998;48.798;15.066;2023-09-08T00:49:27;5.50;;;5.03;;
46266;SDS011;31998;48.798;15.066;2023-09-08T00:51:53;5.47;;;5.00;;
46266;SDS011;31998;48.798;15.066;2023-09-08T00:54:18;9.10;;;5.07;;
46266;SDS011;31998;48.798;15.066;2023-09-08T00:56:44;5.10;;;4.73;;
46266;SDS011;31998;48.798;15.066;2023-09-08T00:59:09;5.27;;;4.87;;
46266;SDS011;31998;48.798;15.066;2023-09-08T01:01:35;6.50;;;4.80;;
46266;SDS011;31998;48.798;15.066;2023-09-08T01:04:00;5.90;;;5.30;;
46266;SDS011;31998;48.798;15.066;2023-09-08T01:06:25;8.20;;;5.00;;
46266;SDS011;31998;48.798;15.066;2023-09-08T01:08:51;5.13;;;4.60;;
46266;SDS011;31998;48.798;15.066;2023-09-08T01:11:17;5.40;;;5.00;;
46266;SDS011;31998;48.798;15.066;2023-09-08T01:13:44;5.20;;;4.80;;
46266;SDS011;31998;48.798;15.066;2023-09-08T01:16:09;5.63;;;5.00;;
46266;SDS011;31998;48.798;15.066;2023-09-08T01:18:34;5.10;;;4.70;;
46266;SDS011;31998;48.798;15.066;2023-09-08T01:21:05;7.27;;;4.80;;
46266;SDS011;31998;48.798;15.066;2023-09-08T01:26:20;6.50;;;5.90;;
46266;SDS011;31998;48.798;15.066;2023-09-08T01:28:47;5.90;;;5.40;;
46266;SDS011;31998;48.798;15.066;2023-09-08T01:31:13;5.57;;;5.17;;
46266;SDS011;31998;48.798;15.066;2023-09-08T01:33:38;6.90;;;5.60;;
46266;SDS011;31998;48.798;15.066;2023-09-08T01:36:04;9.33;;;6.00;;
46266;SDS011;31998;48.798;15.066;2023-09-08T01:38:29;6.00;;;5.50;;
46266;SDS011;31998;48.798;15.066;2023-09-08T01:40:55;8.90;;;5.37;;
46266;SDS011;31998;48.798;15.066;2023-09-08T01:43:20;5.97;;;5.40;;
46266;SDS011;31998;48.798;15.066;2023-09-08T01:45:45;5.47;;;5.07;;
46266;SDS011;31998;48.798;15.066;2023-09-08T01:48:11;8.20;;;5.67;;
46266;SDS011;31998;48.798;15.066;2023-09-08T01:50:36;6.10;;;5.50;;
46266;SDS011;31998;48.798;15.066;2023-09-08T01:53:01;13.83;;;5.43;;
46266;SDS011;31998;48.798;15.066;2023-09-08T01:55:26;10.97;;;5.80;;
46266;SDS011;31998;48.798;15.066;2023-09-08T01:57:51;6.80;;;6.30;;
46266;SDS011;31998;48.798;15.066;2023-09-08T02:00:17;6.07;;;5.50;;
46266;SDS011;31998;48.798;15.066;2023-09-08T02:02:42;7.50;;;5.50;;
46266;SDS011;31998;48.798;15.066;2023-09-08T02:05:07;7.33;;;6.57;;
46266;SDS011;31998;48.798;15.066;2023-09-08T02:07:33;6.60;;;6.10;;
46266;SDS011;31998;48.798;15.066;2023-09-08T02:09:59;14.37;;;6.00;;
46266;SDS011;31998;48.798;15.066;2023-09-08T02:12:24;6.40;;;5.17;;
46266;SDS011;31998;48.798;15.066;2023-09-08T02:14:49;7.20;;;6.60;;
46266;SDS011;31998;48.798;15.066;2023-09-08T02:17:14;6.50;;;6.10;;
46266;SDS011;31998;48.798;15.066;2023-09-08T02:19:39;6.40;;;5.80;;
46266;SDS011;31998;48.798;15.066;2023-09-08T02:22:05;7.53;;;6.40;;
46266;SDS011;31998;48.798;15.066;2023-09-08T02:24:30;7.90;;;6.90;;
46266;SDS011;31998;48.798;15.066;2023-09-08T02:26:55;6.30;;;5.67;;
46266;SDS011;31998;48.798;15.066;2023-09-08T02:29:20;7.70;;;6.67;;
46266;SDS011;31998;48.798;15.066;2023-09-08T02:31:46;7.43;;;6.77;;
46266;SDS011;31998;48.798;15.066;2023-09-08T02:34:11;7.47;;;6.57;;
46266;SDS011;31998;48.798;15.066;2023-09-08T02:36:37;7.60;;;6.70;;
46266;SDS011;31998;48.798;15.066;2023-09-08T02:39:03;7.00;;;5.23;;
46266;SDS011;31998;48.798;15.066;2023-09-08T02:41:28;7.40;;;6.70;;
46266;SDS011;31998;48.798;15.066;2023-09-08T02:43:53;8.00;;;7.20;;
46266;SDS011;31998;48.798;15.066;2023-09-08T02:46:18;7.60;;;7.00;;
46266;SDS011;31998;48.798;15.066;2023-09-08T02:48:44;10.67;;;8.03;;
46266;SDS011;31998;48.798;15.066;2023-09-08T02:51:09;8.50;;;7.70;;
46266;SDS011;31998;48.798;15.066;2023-09-08T02:53:34;9.63;;;7.10;;
46266;SDS011;31998;48.798;15.066;2023-09-08T02:55:59;25.13;;;9.33;;
46266;SDS011;31998;48.798;15.066;2023-09-08T02:58:25;8.90;;;8.10;;
46266;SDS011;31998;48.798;15.066;2023-09-08T03:00:51;8.67;;;7.80;;
46266;SDS011;31998;48.798;15.066;2023-09-08T03:03:20;8.93;;;8.03;;
46266;SDS011;31998;48.798;15.066;2023-09-08T03:05:45;10.33;;;9.10;;
46266;SDS011;31998;48.798;15.066;2023-09-08T03:08:10;11.23;;;9.00;;
46266;SDS011;31998;48.798;15.066;2023-09-08T03:10:36;10.27;;;8.63;;
46266;SDS011;31998;48.798;15.066;2023-09-08T03:13:01;11.30;;;9.30;;
46266;SDS011;31998;48.798;15.066;2023-09-08T03:15:26;10.40;;;9.40;;
46266;SDS011;31998;48.798;15.066;2023-09-08T03:17:54;10.20;;;8.83;;
46266;SDS011;31998;48.798;15.066;2023-09-08T03:20:20;9.03;;;8.23;;
46266;SDS011;31998;48.798;15.066;2023-09-08T03:22:45;12.77;;;10.33;;
46266;SDS011;31998;48.798;15.066;2023-09-08T03:25:10;11.03;;;9.47;;
46266;SDS011;31998;48.798;15.066;2023-09-08T03:27:35;9.97;;;8.97;;
46266;SDS011;31998;48.798;15.066;2023-09-08T03:30:01;11.73;;;9.90;;
46266;SDS011;31998;48.798;15.066;2023-09-08T03:32:28;9.73;;;8.83;;
46266;SDS011;31998;48.798;15.066;2023-09-08T03:34:53;11.10;;;9.93;;
46266;SDS011;31998;48.798;15.066;2023-09-08T03:37:19;11.80;;;8.80;;
46266;SDS011;31998;48.798;15.066;2023-09-08T03:39:44;11.13;;;8.90;;
46266;SDS011;31998;48.798;15.066;2023-09-08T03:42:09;15.03;;;11.33;;
46266;SDS011;31998;48.798;15.066;2023-09-08T03:44:34;11.13;;;9.47;;
46266;SDS011;31998;48.798;15.066;2023-09-08T03:47:00;10.03;;;9.13;;
46266;SDS011;31998;48.798;15.066;2023-09-08T03:49:25;10.27;;;9.37;;
46266;SDS011;31998;48.798;15.066;2023-09-08T03:51:50;9.60;;;8.80;;
46266;SDS011;31998;48.798;15.066;2023-09-08T03:54:15;10.70;;;8.80;;
46266;SDS011;31998;48.798;15.066;2023-09-08T03:56:40;9.60;;;8.67;;
46266;SDS011;31998;48.798;15.066;2023-09-08T03:59:06;9.27;;;8.47;;
46266;SDS011;31998;48.798;15.066;2023-09-08T04:01:31;9.80;;;8.90;;
46266;SDS011;31998;48.798;15.066;2023-09-08T04:03:56;10.30;;;8.40;;
46266;SDS011;31998;48.798;15.066;2023-09-08T04:06:21;9.57;;;8.73;;
46266;SDS011;31998;48.798;15.066;2023-09-08T04:08:46;11.97;;;8.07;;
46266;SDS011;31998;48.798;15.066;2023-09-08T04:11:12;8.30;;;7.20;;
46266;SDS011;31998;48.798;15.066;2023-09-08T04:13:37;15.00;;;7.50;;
46266;SDS011;31998;48.798;15.066;2023-09-08T04:16:02;10.10;;;8.47;;
46266;SDS011;31998;48.798;15.066;2023-09-08T04:18:27;11.03;;;8.93;;
46266;SDS011;31998;48.798;15.066;2023-09-08T04:20:53;11.27;;;8.53;;
46266;SDS011;31998;48.798;15.066;2023-09-08T04:23:18;10.10;;;8.40;;
46266;SDS011;31998;48.798;15.066;2023-09-08T04:25:43;10.07;;;8.87;;
46266;SDS011;31998;48.798;15.066;2023-09-08T04:28:09;9.47;;;8.57;;
46266;SDS011;31998;48.798;15.066;2023-09-08T04:30:34;9.87;;;8.80;;
46266;SDS011;31998;48.798;15.066;2023-09-08T04:32:59;13.20;;;8.63;;
46266;SDS011;31998;48.798;15.066;2023-09-08T04:35:24;15.83;;;10.30;;
46266;SDS011;31998;48.798;15.066;2023-09-08T04:37:50;9.73;;;8.60;;
46266;SDS011;31998;48.798;15.066;2023-09-08T04:40:15;12.37;;;10.03;;
46266;SDS011;31998;48.798;15.066;2023-09-08T04:42:40;20.63;;;9.37;;
46266;SDS011;31998;48.798;15.066;2023-09-08T04:45:05;11.87;;;9.33;;
46266;SDS011;31998;48.798;15.066;2023-09-08T04:47:31;9.40;;;7.90;;
46266;SDS011;31998;48.798;15.066;2023-09-08T04:49:56;10.10;;;9.20;;
46266;SDS011;31998;48.798;15.066;2023-09-08T04:52:21;9.17;;;8.27;;
46266;SDS011;31998;48.798;15.066;2023-09-08T04:54:47;11.07;;;9.90;;
46266;SDS011;31998;48.798;15.066;2023-09-08T04:57:12;10.90;;;9.90;;
46266;SDS011;31998;48.798;15.066;2023-09-08T04:59:38;10.17;;;9.37;;
46266;SDS011;31998;48.798;15.066;2023-09-08T05:02:04;8.23;;;7.40;;
46266;SDS011;31998;48.798;15.066;2023-09-08T05:04:29;8.93;;;8.13;;
46266;SDS011;31998;48.798;15.066;2023-09-08T05:06:54;8.70;;;7.80;;
46266;SDS011;31998;48.798;15.066;2023-09-08T05:09:19;11.23;;;8.70;;
46266;SDS011;31998;48.798;15.066;2023-09-08T05:11:45;10.03;;;8.70;;
46266;SDS011;31998;48.798;15.066;2023-09-08T05:14:10;9.07;;;8.27;;
46266;SDS011;31998;48.798;15.066;2023-09-08T05:16:35;8.73;;;8.00;;
46266;SDS011;31998;48.798;15.066;2023-09-08T05:19:14;10.67;;;9.03;;
46266;SDS011;31998;48.798;15.066;2023-09-08T05:21:39;14.17;;;9.00;;
46266;SDS011;31998;48.798;15.066;2023-09-08T05:24:06;10.97;;;9.77;;
46266;SDS011;31998;48.798;15.066;2023-09-08T05:26:31;15.90;;;9.10;;
46266;SDS011;31998;48.798;15.066;2023-09-08T05:28:56;10.57;;;9.57;;
46266;SDS011;31998;48.798;15.066;2023-09-08T05:31:22;13.27;;;9.93;;
46266;SDS011;31998;48.798;15.066;2023-09-08T05:33:47;12.67;;;9.07;;
46266;SDS011;31998;48.798;15.066;2023-09-08T05:36:12;17.27;;;9.57;;
46266;SDS011;31998;48.798;15.066;2023-09-08T05:38:37;10.97;;;9.87;;
46266;SDS011;31998;48.798;15.066;2023-09-08T05:41:03;10.20;;;9.10;;
46266;SDS011;31998;48.798;15.066;2023-09-08T05:43:28;14.00;;;9.43;;
46266;SDS011;31998;48.798;15.066;2023-09-08T05:45:53;13.50;;;8.80;;
46266;SDS011;31998;48.798;15.066;2023-09-08T05:48:18;9.50;;;8.60;;
46266;SDS011;31998;48.798;15.066;2023-09-08T05:50:44;8.97;;;8.07;;
46266;SDS011;31998;48.798;15.066;2023-09-08T05:53:09;10.73;;;8.83;;
46266;SDS011;31998;48.798;15.066;2023-09-08T05:55:34;13.43;;;8.43;;
46266;SDS011;31998;48.798;15.066;2023-09-08T05:57:59;9.83;;;8.20;;
46266;SDS011;31998;48.798;15.066;2023-09-08T06:00:25;9.87;;;7.67;;
46266;SDS011;31998;48.798;15.066;2023-09-08T06:02:50;9.13;;;8.37;;
46266;SDS011;31998;48.798;15.066;2023-09-08T06:05:16;8.87;;;7.50;;
46266;SDS011;31998;48.798;15.066;2023-09-08T06:07:41;9.53;;;8.63;;
46266;SDS011;31998;48.798;15.066;2023-09-08T06:10:06;8.73;;;7.67;;
46266;SDS011;31998;48.798;15.066;2023-09-08T06:12:31;12.57;;;7.07;;
46266;SDS011;31998;48.798;15.066;2023-09-08T06:14:57;8.63;;;7.83;;
46266;SDS011;31998;48.798;15.066;2023-09-08T06:17:22;8.97;;;8.07;;
46266;SDS011;31998;48.798;15.066;2023-09-08T06:19:47;8.67;;;7.87;;
46266;SDS011;31998;48.798;15.066;2023-09-08T06:22:12;7.57;;;6.97;;
46266;SDS011;31998;48.798;15.066;2023-09-08T06:24:38;8.60;;;7.87;;
46266;SDS011;31998;48.798;15.066;2023-09-08T06:27:03;7.53;;;7.00;;
46266;SDS011;31998;48.798;15.066;2023-09-08T06:29:28;8.50;;;7.30;;
46266;SDS011;31998;48.798;15.066;2023-09-08T06:31:53;8.10;;;7.10;;
46266;SDS011;31998;48.798;15.066;2023-09-08T06:34:19;7.77;;;7.13;;
46266;SDS011;31998;48.798;15.066;2023-09-08T06:36:47;7.80;;;7.10;;
46266;SDS011;31998;48.798;15.066;2023-09-08T06:39:12;13.47;;;8.10;;
46266;SDS011;31998;48.798;15.066;2023-09-08T06:41:37;8.17;;;7.47;;
46266;SDS011;31998;48.798;15.066;2023-09-08T06:44:03;7.40;;;6.80;;
46266;SDS011;31998;48.798;15.066;2023-09-08T06:46:28;7.93;;;7.23;;
46266;SDS011;31998;48.798;15.066;2023-09-08T06:48:53;8.03;;;7.33;;
46266;SDS011;31998;48.798;15.066;2023-09-08T06:51:18;7.70;;;6.87;;
46266;SDS011;31998;48.798;15.066;2023-09-08T06:53:44;11.60;;;7.00;;
46266;SDS011;31998;48.798;15.066;2023-09-08T06:56:10;8.80;;;7.87;;
46266;SDS011;31998;48.798;15.066;2023-09-08T06:58:35;7.37;;;6.37;;
46266;SDS011;31998;48.798;15.066;2023-09-08T07:01:00;9.30;;;7.10;;
46266;SDS011;31998;48.798;15.066;2023-09-08T07:03:25;6.63;;;6.03;;
46266;SDS011;31998;48.798;15.066;2023-09-08T07:05:51;8.47;;;6.67;;
46266;SDS011;31998;48.798;15.066;2023-09-08T07:08:17;7.33;;;6.60;;
46266;SDS011;31998;48.798;15.066;2023-09-08T07:10:43;9.97;;;6.30;;
46266;SDS011;31998;48.798;15.066;2023-09-08T07:13:08;6.70;;;6.20;;
46266;SDS011;31998;48.798;15.066;2023-09-08T07:15:33;5.73;;;5.20;;
46266;SDS011;31998;48.798;15.066;2023-09-08T07:17:58;6.63;;;6.13;;
46266;SDS011;31998;48.798;15.066;2023-09-08T07:20:24;6.80;;;6.10;;
46266;SDS011;31998;48.798;15.066;2023-09-08T07:22:49;10.23;;;5.40;;
46266;SDS011;31998;48.798;15.066;2023-09-08T07:25:14;5.73;;;5.07;;
46266;SDS011;31998;48.798;15.066;2023-09-08T07:27:39;6.83;;;6.17;;
46266;SDS011;31998;48.798;15.066;2023-09-08T07:30:05;6.70;;;5.40;;
46266;SDS011;31998;48.798;15.066;2023-09-08T07:32:30;6.00;;;5.50;;
46266;SDS011;31998;48.798;15.066;2023-09-08T07:34:57;10.17;;;5.63;;
46266;SDS011;31998;48.798;15.066;2023-09-08T07:37:22;6.30;;;5.70;;
46266;SDS011;31998;48.798;15.066;2023-09-08T07:39:47;15.37;;;5.13;;
46266;SDS011;31998;48.798;15.066;2023-09-08T07:42:13;5.90;;;5.50;;
46266;SDS011;31998;48.798;15.066;2023-09-08T07:44:38;8.63;;;5.13;;
46266;SDS011;31998;48.798;15.066;2023-09-08T07:47:03;5.67;;;5.10;;
46266;SDS011;31998;48.798;15.066;2023-09-08T07:49:28;5.40;;;5.10;;
46266;SDS011;31998;48.798;15.066;2023-09-08T07:51:54;9.43;;;5.23;;
46266;SDS011;31998;48.798;15.066;2023-09-08T07:54:19;6.60;;;5.63;;
46266;SDS011;31998;48.798;15.066;2023-09-08T07:56:44;5.93;;;5.27;;
46266;SDS011;31998;48.798;15.066;2023-09-08T07:59:09;5.47;;;5.07;;
46266;SDS011;31998;48.798;15.066;2023-09-08T08:01:34;4.63;;;4.33;;
46266;SDS011;31998;48.798;15.066;2023-09-08T08:04:00;4.73;;;4.53;;
46266;SDS011;31998;48.798;15.066;2023-09-08T08:06:28;4.60;;;4.40;;
46266;SDS011;31998;48.798;15.066;2023-09-08T08:08:53;5.70;;;5.07;;
46266;SDS011;31998;48.798;15.066;2023-09-08T08:11:18;9.00;;;5.20;;
46266;SDS011;31998;48.798;15.066;2023-09-08T08:13:43;4.50;;;4.23;;
46266;SDS011;31998;48.798;15.066;2023-09-08T08:16:08;4.67;;;4.07;;
46266;SDS011;31998;48.798;15.066;2023-09-08T08:18:34;5.20;;;4.83;;
46266;SDS011;31998;48.798;15.066;2023-09-08T08:20:59;9.43;;;4.77;;
46266;SDS011;31998;48.798;15.066;2023-09-08T08:23:25;9.20;;;4.20;;
46266;SDS011;31998;48.798;15.066;2023-09-08T08:25:50;5.23;;;4.83;;
46266;SDS011;31998;48.798;15.066;2023-09-08T08:28:16;11.17;;;3.90;;
46266;SDS011;31998;48.798;15.066;2023-09-08T08:30:41;7.33;;;5.13;;
46266;SDS011;31998;48.798;15.066;2023-09-08T08:33:06;7.90;;;4.40;;
46266;SDS011;31998;48.798;15.066;2023-09-08T08:35:31;7.60;;;4.47;;
46266;SDS011;31998;48.798;15.066;2023-09-08T08:37:59;7.83;;;4.70;;
46266;SDS011;31998;48.798;15.066;2023-09-08T08:40:28;4.20;;;3.90;;
46266;SDS011;31998;48.798;15.066;2023-09-08T08:42:56;5.20;;;4.70;;
46266;SDS011;31998;48.798;15.066;2023-09-08T08:45:23;4.83;;;4.40;;
46266;SDS011;31998;48.798;15.066;2023-09-08T08:47:49;4.63;;;4.33;;
46266;SDS011;31998;48.798;15.066;2023-09-08T08:50:14;4.63;;;4.23;;
46266;SDS011;31998;48.798;15.066;2023-09-08T08:52:42;10.60;;;4.27;;
46266;SDS011;31998;48.798;15.066;2023-09-08T08:55:07;4.90;;;4.50;;
46266;SDS011;31998;48.798;15.066;2023-09-08T08:57:33;5.07;;;4.33;;
46266;SDS011;31998;48.798;15.066;2023-09-08T08:59:59;4.97;;;4.37;;
46266;SDS011;31998;48.798;15.066;2023-09-08T09:02:25;6.77;;;4.80;;
46266;SDS011;31998;48.798;15.066;2023-09-08T09:04:50;4.30;;;3.90;;
46266;SDS011;31998;48.798;15.066;2023-09-08T09:07:15;5.17;;;4.63;;
46266;SDS011;31998;48.798;15.066;2023-09-08T09:09:42;7.60;;;4.63;;
46266;SDS011;31998;48.798;15.066;2023-09-08T09:12:08;6.70;;;4.70;;
46266;SDS011;31998;48.798;15.066;2023-09-08T09:14:33;4.53;;;4.13;;
46266;SDS011;31998;48.798;15.066;2023-09-08T09:16:59;6.50;;;4.30;;
46266;SDS011;31998;48.798;15.066;2023-09-08T09:19:26;6.63;;;3.97;;
46266;SDS011;31998;48.798;15.066;2023-09-08T09:21:56;12.30;;;4.67;;
46266;SDS011;31998;48.798;15.066;2023-09-08T09:24:41;6.53;;;3.90;;
46266;SDS011;31998;48.798;15.066;2023-09-08T09:27:08;4.77;;;4.37;;
46266;SDS011;31998;48.798;15.066;2023-09-08T09:29:34;6.67;;;4.90;;
46266;SDS011;31998;48.798;15.066;2023-09-08T09:32:08;5.23;;;4.77;;
46266;SDS011;31998;48.798;15.066;2023-09-08T09:34:34;8.80;;;4.97;;
46266;SDS011;31998;48.798;15.066;2023-09-08T09:36:59;8.30;;;4.37;;
46266;SDS011;31998;48.798;15.066;2023-09-08T09:39:24;7.97;;;3.20;;
46266;SDS011;31998;48.798;15.066;2023-09-08T09:41:53;5.60;;;5.20;;
46266;SDS011;31998;48.798;15.066;2023-09-08T09:44:19;6.77;;;4.43;;
46266;SDS011;31998;48.798;15.066;2023-09-08T09:46:45;4.50;;;4.13;;
46266;SDS011;31998;48.798;15.066;2023-09-08T09:49:15;3.87;;;3.70;;
46266;SDS011;31998;48.798;15.066;2023-09-08T09:51:43;8.33;;;4.43;;
46266;SDS011;31998;48.798;15.066;2023-09-08T09:54:08;4.40;;;4.00;;
46266;SDS011;31998;48.798;15.066;2023-09-08T09:56:34;5.10;;;4.80;;
46266;SDS011;31998;48.798;15.066;2023-09-08T09:59:01;5.30;;;4.80;;
46266;SDS011;31998;48.798;15.066;2023-09-08T10:01:28;5.93;;;5.37;;
46266;SDS011;31998;48.798;15.066;2023-09-08T10:03:53;8.37;;;4.70;;
46266;SDS011;31998;48.798;15.066;2023-09-08T10:06:18;4.60;;;4.20;;
46266;SDS011;31998;48.798;15.066;2023-09-08T10:08:44;5.93;;;4.63;;
46266;SDS011;31998;48.798;15.066;2023-09-08T10:11:09;4.50;;;4.20;;
46266;SDS011;31998;48.798;15.066;2023-09-08T10:13:39;4.93;;;4.43;;
46266;SDS011;31998;48.798;15.066;2023-09-08T10:16:07;9.60;;;4.33;;
46266;SDS011;31998;48.798;15.066;2023-09-08T10:18:33;8.30;;;4.33;;
46266;SDS011;31998;48.798;15.066;2023-09-08T10:21:00;7.13;;;3.60;;
46266;SDS011;31998;48.798;15.066;2023-09-08T10:23:36;4.80;;;4.13;;
46266;SDS011;31998;48.798;15.066;2023-09-08T10:26:02;4.40;;;4.10;;
46266;SDS011;31998;48.798;15.066;2023-09-08T10:28:30;4.80;;;4.57;;
46266;SDS011;31998;48.798;15.066;2023-09-08T10:30:56;5.33;;;4.77;;
46266;SDS011;31998;48.798;15.066;2023-09-08T10:33:21;6.70;;;4.30;;
46266;SDS011;31998;48.798;15.066;2023-09-08T10:35:48;5.03;;;4.47;;
46266;SDS011;31998;48.798;15.066;2023-09-08T10:40:49;4.03;;;3.43;;
46266;SDS011;31998;48.798;15.066;2023-09-08T10:43:14;6.93;;;3.53;;
46266;SDS011;31998;48.798;15.066;2023-09-08T10:45:39;3.60;;;3.37;;
46266;SDS011;31998;48.798;15.066;2023-09-08T10:48:06;4.33;;;4.13;;
46266;SDS011;31998;48.798;15.066;2023-09-08T10:50:35;7.20;;;3.77;;
46266;SDS011;31998;48.798;15.066;2023-09-08T10:53:07;4.77;;;4.47;;
46266;SDS011;31998;48.798;15.066;2023-09-08T10:55:42;3.80;;;3.40;;
46266;SDS011;31998;48.798;15.066;2023-09-08T10:58:35;5.43;;;3.70;;
46266;SDS011;31998;48.798;15.066;2023-09-08T11:01:03;6.20;;;4.10;;
46266;SDS011;31998;48.798;15.066;2023-09-08T11:06:04;4.80;;;4.50;;
46266;SDS011;31998;48.798;15.066;2023-09-08T11:08:29;3.80;;;3.50;;
46266;SDS011;31998;48.798;15.066;2023-09-08T11:10:55;3.87;;;3.57;;
46266;SDS011;31998;48.798;15.066;2023-09-08T11:13:20;5.10;;;3.13;;
46266;SDS011;31998;48.798;15.066;2023-09-08T11:15:46;10.93;;;3.57;;
46266;SDS011;31998;48.798;15.066;2023-09-08T11:18:11;3.40;;;3.20;;
46266;SDS011;31998;48.798;15.066;2023-09-08T11:20:36;4.10;;;3.80;;
46266;SDS011;31998;48.798;15.066;2023-09-08T11:23:02;8.83;;;3.70;;
46266;SDS011;31998;48.798;15.066;2023-09-08T11:25:29;4.23;;;3.83;;
46266;SDS011;31998;48.798;15.066;2023-09-08T11:27:56;6.30;;;3.70;;
46266;SDS011;31998;48.798;15.066;2023-09-08T11:30:21;5.10;;;3.20;;
46266;SDS011;31998;48.798;15.066;2023-09-08T11:32:47;4.20;;;3.80;;
46266;SDS011;31998;48.798;15.066;2023-09-08T11:35:12;4.27;;;3.87;;
46266;SDS011;31998;48.798;15.066;2023-09-08T11:37:40;3.90;;;3.60;;
46266;SDS011;31998;48.798;15.066;2023-09-08T11:40:06;6.93;;;3.70;;
46266;SDS011;31998;48.798;15.066;2023-09-08T11:42:34;3.73;;;3.53;;
46266;SDS011;31998;48.798;15.066;2023-09-08T11:45:00;6.63;;;4.00;;
46266;SDS011;31998;48.798;15.066;2023-09-08T11:47:25;5.53;;;3.77;;
46266;SDS011;31998;48.798;15.066;2023-09-08T11:49:52;7.73;;;3.40;;
46266;SDS011;31998;48.798;15.066;2023-09-08T11:52:17;4.30;;;4.10;;
46266;SDS011;31998;48.798;15.066;2023-09-08T11:54:42;4.50;;;4.10;;
46266;SDS011;31998;48.798;15.066;2023-09-08T11:57:08;4.10;;;3.73;;
46266;SDS011;31998;48.798;15.066;2023-09-08T11:59:34;6.13;;;3.77;;
46266;SDS011;31998;48.798;15.066;2023-09-08T12:01:59;4.23;;;3.90;;
46266;SDS011;31998;48.798;15.066;2023-09-08T12:04:25;3.87;;;3.57;;
46266;SDS011;31998;48.798;15.066;2023-09-08T12:06:51;15.10;;;3.97;;
46266;SDS011;31998;48.798;15.066;2023-09-08T12:09:16;6.30;;;3.80;;
46266;SDS011;31998;48.798;15.066;2023-09-08T12:11:41;4.30;;;3.60;;
46266;SDS011;31998;48.798;15.066;2023-09-08T12:14:09;3.90;;;3.50;;
46266;SDS011;31998;48.798;15.066;2023-09-08T12:16:35;4.73;;;4.33;;
46266;SDS011;31998;48.798;15.066;2023-09-08T12:19:00;9.60;;;3.50;;
46266;SDS011;31998;48.798;15.066;2023-09-08T12:21:25;4.37;;;4.07;;
46266;SDS011;31998;48.798;15.066;2023-09-08T12:23:51;7.13;;;4.13;;
46266;SDS011;31998;48.798;15.066;2023-09-08T12:26:17;15.03;;;3.87;;
46266;SDS011;31998;48.798;15.066;2023-09-08T12:28:42;8.43;;;4.00;;
46266;SDS011;31998;48.798;15.066;2023-09-08T12:31:08;4.10;;;3.77;;
46266;SDS011;31998;48.798;15.066;2023-09-08T12:33:34;5.57;;;4.00;;
46266;SDS011;31998;48.798;15.066;2023-09-08T12:35:59;9.53;;;4.40;;
46266;SDS011;31998;48.798;15.066;2023-09-08T12:38:30;4.00;;;3.63;;
46266;SDS011;31998;48.798;15.066;2023-09-08T12:40:55;9.23;;;3.70;;
46266;SDS011;31998;48.798;15.066;2023-09-08T12:43:20;4.83;;;4.20;;
46266;SDS011;31998;48.798;15.066;2023-09-08T12:45:45;8.00;;;4.00;;
46266;SDS011;31998;48.798;15.066;2023-09-08T12:48:11;3.40;;;3.27;;
46266;SDS011;31998;48.798;15.066;2023-09-08T12:50:36;4.23;;;3.90;;
46266;SDS011;31998;48.798;15.066;2023-09-08T12:53:02;7.47;;;4.00;;
46266;SDS011;31998;48.798;15.066;2023-09-08T12:55:27;4.33;;;3.90;;
46266;SDS011;31998;48.798;15.066;2023-09-08T12:57:52;4.93;;;3.60;;
46266;SDS011;31998;48.798;15.066;2023-09-08T13:00:20;5.80;;;4.00;;
46266;SDS011;31998;48.798;15.066;2023-09-08T13:02:47;11.93;;;4.13;;
46266;SDS011;31998;48.798;15.066;2023-09-08T13:05:12;5.37;;;4.23;;
46266;SDS011;31998;48.798;15.066;2023-09-08T13:07:38;3.77;;;3.43;;
46266;SDS011;31998;48.798;15.066;2023-09-08T13:10:03;6.10;;;3.67;;
46266;SDS011;31998;48.798;15.066;2023-09-08T13:12:28;7.03;;;3.77;;
46266;SDS011;31998;48.798;15.066;2023-09-08T13:14:54;5.60;;;3.93;;
46266;SDS011;31998;48.798;15.066;2023-09-08T13:17:19;6.50;;;3.97;;
46266;SDS011;31998;48.798;15.066;2023-09-08T13:19:45;9.70;;;4.17;;
46266;SDS011;31998;48.798;15.066;2023-09-08T13:22:10;7.23;;;3.60;;
46266;SDS011;31998;48.798;15.066;2023-09-08T13:24:36;4.03;;;3.67;;
46266;SDS011;31998;48.798;15.066;2023-09-08T13:27:01;4.93;;;3.50;;
46266;SDS011;31998;48.798;15.066;2023-09-08T13:29:27;3.80;;;3.50;;
46266;SDS011;31998;48.798;15.066;2023-09-08T13:31:52;3.27;;;2.93;;
46266;SDS011;31998;48.798;15.066;2023-09-08T13:34:17;3.87;;;3.67;;
46266;SDS011;31998;48.798;15.066;2023-09-08T13:36:43;3.67;;;3.37;;
46266;SDS011;31998;48.798;15.066;2023-09-08T13:39:08;6.00;;;3.67;;
46266;SDS011;31998;48.798;15.066;2023-09-08T13:41:52;3.57;;;3.37;;
46266;SDS011;31998;48.798;15.066;2023-09-08T13:44:18;11.47;;;3.83;;
46266;SDS011;31998;48.798;15.066;2023-09-08T13:46:45;4.03;;;3.57;;
46266;SDS011;31998;48.798;15.066;2023-09-08T13:49:10;4.10;;;3.80;;
46266;SDS011;31998;48.798;15.066;2023-09-08T13:51:36;4.40;;;3.47;;
46266;SDS011;31998;48.798;15.066;2023-09-08T13:54:01;12.07;;;3.90;;
46266;SDS011;31998;48.798;15.066;2023-09-08T13:56:27;3.83;;;3.40;;
46266;SDS011;31998;48.798;15.066;2023-09-08T13:58:52;13.43;;;4.20;;
46266;SDS011;31998;48.798;15.066;2023-09-08T14:01:17;4.17;;;3.80;;
46266;SDS011;31998;48.798;15.066;2023-09-08T14:03:43;7.53;;;4.43;;
46266;SDS011;31998;48.798;15.066;2023-09-08T14:06:09;5.63;;;4.40;;
46266;SDS011;31998;48.798;15.066;2023-09-08T14:08:34;4.30;;;4.00;;
46266;SDS011;31998;48.798;15.066;2023-09-08T14:10:59;4.60;;;3.80;;
46266;SDS011;31998;48.798;15.066;2023-09-08T14:13:24;9.37;;;4.43;;
46266;SDS011;31998;48.798;15.066;2023-09-08T14:15:50;4.33;;;4.13;;
46266;SDS011;31998;48.798;15.066;2023-09-08T14:18:15;9.43;;;4.40;;
46266;SDS011;31998;48.798;15.066;2023-09-08T14:20:41;4.90;;;4.30;;
46266;SDS011;31998;48.798;15.066;2023-09-08T14:23:07;3.80;;;3.43;;
46266;SDS011;31998;48.798;15.066;2023-09-08T14:25:33;4.50;;;4.10;;
46266;SDS011;31998;48.798;15.066;2023-09-08T14:27:58;3.30;;;3.00;;
46266;SDS011;31998;48.798;15.066;2023-09-08T14:30:24;6.97;;;3.50;;